sensor_id;sensor_type;location;lat;lon;timestamp;temperature;humidity
18408;DHT22;9330;52.210;21.174;2023-12-29T00:01:37;3.60;99.90
18408;DHT22;9330;52.210;21.174;2023-12-29T00:04:04;3.40;99.90
18408;DHT22;9330;52.210;21.174;2023-12-29T00:06:30;3.40;99.90
18408;DHT22;9330;52.210;21.174;2023-12-29T00:08:57;3.40;99.90
18408;DHT22;9330;52.210;21.174;2023-12-29T00:11:25;3.40;99.90
18408;DHT22;9330;52.210;21.174;2023-12-29T00:13:52;3.40;99.90
18408;DHT22;9330;52.210;21.174;2023-12-29T00:16:20;3.40;99.90
18408;DHT22;9330;52.210;21.174;2023-12-29T00:18:47;3.30;99.90
18408;DHT22;9330;52.210;21.174;2023-12-29T00:21:14;3.30;99.90
18408;DHT22;9330;52.210;21.174;2023-12-29T00:23:40;3.30;1.00
18408;DHT22;9330;52.210;21.174;2023-12-29T00:26:07;3.30;1.00
18408;DHT22;9330;52.210;21.174;2023-12-29T00:28:36;3.30;1.00
18408;DHT22;9330;52.210;21.174;2023-12-29T00:31:05;3.40;1.00
18408;DHT22;9330;52.210;21.174;2023-12-29T00:33:34;3.20;1.00
18408;DHT22;9330;52.210;21.174;2023-12-29T00:36:01;3.20;1.00
18408;DHT22;9330;52.210;21.174;2023-12-29T00:38:28;3.30;1.00
18408;DHT22;9330;52.210;21.174;2023-12-29T00:40:54;3.20;1.00
18408;DHT22;9330;52.210;21.174;2023-12-29T00:43:21;3.30;1.00
18408;DHT22;9330;52.210;21.174;2023-12-29T00:45:48;3.20;1.00
18408;DHT22;9330;52.210;21.174;2023-12-29T00:48:15;3.20;1.00
18408;DHT22;9330;52.210;21.174;2023-12-29T00:50:44;3.30;1.00
18408;DHT22;9330;52.210;21.174;2023-12-29T00:53:11;3.20;1.00
18408;DHT22;9330;52.210;21.174;2023-12-29T00:55:37;3.20;1.00
18408;DHT22;9330;52.210;21.174;2023-12-29T00:58:04;3.30;1.00
18408;DHT22;9330;52.210;21.174;2023-12-29T01:00:31;3.20;1.00
18408;DHT22;9330;52.210;21.174;2023-12-29T01:02:58;3.30;1.00
18408;DHT22;9330;52.210;21.174;2023-12-29T01:05:25;3.20;1.00
18408;DHT22;9330;52.210;21.174;2023-12-29T01:07:54;3.20;1.00
18408;DHT22;9330;52.210;21.174;2023-12-29T01:10:21;3.40;1.00
18408;DHT22;9330;52.210;21.174;2023-12-29T01:12:48;3.30;1.00
18408;DHT22;9330;52.210;21.174;2023-12-29T01:15:15;3.30;1.00
18408;DHT22;9330;52.210;21.174;2023-12-29T01:17:42;3.30;1.00
18408;DHT22;9330;52.210;21.174;2023-12-29T01:20:10;3.30;1.00
18408;DHT22;9330;52.210;21.174;2023-12-29T01:22:37;3.40;1.00
18408;DHT22;9330;52.210;21.174;2023-12-29T01:25:05;3.40;1.00
18408;DHT22;9330;52.210;21.174;2023-12-29T01:27:32;3.40;1.00
18408;DHT22;9330;52.210;21.174;2023-12-29T01:29:59;3.40;1.00
18408;DHT22;9330;52.210;21.174;2023-12-29T01:32:26;3.40;1.00
18408;DHT22;9330;52.210;21.174;2023-12-29T01:34:53;3.50;1.00
18408;DHT22;9330;52.210;21.174;2023-12-29T01:37:20;3.50;1.00
18408;DHT22;9330;52.210;21.174;2023-12-29T01:39:47;3.50;1.00
18408;DHT22;9330;52.210;21.174;2023-12-29T01:42:15;3.50;1.00
18408;DHT22;9330;52.210;21.174;2023-12-29T01:44:42;3.40;1.00
18408;DHT22;9330;52.210;21.174;2023-12-29T01:47:14;3.40;1.00
18408;DHT22;9330;52.210;21.174;2023-12-29T01:49:43;3.30;1.00
18408;DHT22;9330;52.210;21.174;2023-12-29T01:52:11;3.30;1.00
18408;DHT22;9330;52.210;21.174;2023-12-29T01:54:39;3.30;1.00
18408;DHT22;9330;52.210;21.174;2023-12-29T01:57:08;3.30;1.00
18408;DHT22;9330;52.210;21.174;2023-12-29T01:59:37;3.30;1.00
18408;DHT22;9330;52.210;21.174;2023-12-29T02:02:04;3.20;1.00
18408;DHT22;9330;52.210;21.174;2023-12-29T02:04:31;3.20;1.00
18408;DHT22;9330;52.210;21.174;2023-12-29T02:06:58;3.20;1.00
18408;DHT22;9330;52.210;21.174;2023-12-29T02:09:25;3.20;1.00
18408;DHT22;9330;52.210;21.174;2023-12-29T02:11:52;3.10;1.00
18408;DHT22;9330;52.210;21.174;2023-12-29T02:14:21;3.10;1.00
18408;DHT22;9330;52.210;21.174;2023-12-29T02:16:56;3.00;1.00
18408;DHT22;9330;52.210;21.174;2023-12-29T02:19:37;3.00;1.00
18408;DHT22;9330;52.210;21.174;2023-12-29T02:22:05;3.00;1.00
18408;DHT22;9330;52.210;21.174;2023-12-29T02:24:33;2.90;1.00
18408;DHT22;9330;52.210;21.174;2023-12-29T02:27:12;2.90;1.00
18408;DHT22;9330;52.210;21.174;2023-12-29T02:29:45;2.90;1.00
18408;DHT22;9330;52.210;21.174;2023-12-29T02:32:17;2.80;1.00
18408;DHT22;9330;52.210;21.174;2023-12-29T02:34:47;2.80;1.00
18408;DHT22;9330;52.210;21.174;2023-12-29T02:37:14;2.80;1.00
18408;DHT22;9330;52.210;21.174;2023-12-29T02:39:41;2.80;1.00
18408;DHT22;9330;52.210;21.174;2023-12-29T02:42:10;2.80;1.00
18408;DHT22;9330;52.210;21.174;2023-12-29T02:44:37;2.70;1.00
18408;DHT22;9330;52.210;21.174;2023-12-29T02:47:04;2.60;1.00
18408;DHT22;9330;52.210;21.174;2023-12-29T02:49:31;2.60;1.00
18408;DHT22;9330;52.210;21.174;2023-12-29T02:51:58;2.60;1.00
18408;DHT22;9330;52.210;21.174;2023-12-29T02:54:25;2.60;1.00
18408;DHT22;9330;52.210;21.174;2023-12-29T02:56:51;2.60;1.00
18408;DHT22;9330;52.210;21.174;2023-12-29T02:59:20;2.50;1.00
18408;DHT22;9330;52.210;21.174;2023-12-29T03:01:46;2.50;1.00
18408;DHT22;9330;52.210;21.174;2023-12-29T03:04:13;2.40;1.00
18408;DHT22;9330;52.210;21.174;2023-12-29T03:06:40;2.30;1.00
18408;DHT22;9330;52.210;21.174;2023-12-29T03:09:07;2.30;1.00
18408;DHT22;9330;52.210;21.174;2023-12-29T03:11:34;2.40;1.00
18408;DHT22;9330;52.210;21.174;2023-12-29T03:14:01;2.30;1.00
18408;DHT22;9330;52.210;21.174;2023-12-29T03:16:29;2.50;1.00
18408;DHT22;9330;52.210;21.174;2023-12-29T03:18:56;2.40;1.00
18408;DHT22;9330;52.210;21.174;2023-12-29T03:21:23;2.30;1.00
18408;DHT22;9330;52.210;21.174;2023-12-29T03:23:49;2.30;1.00
18408;DHT22;9330;52.210;21.174;2023-12-29T03:26:16;2.40;2.40
18408;DHT22;9330;52.210;21.174;2023-12-29T03:28:43;2.40;17.60
18408;DHT22;9330;52.210;21.174;2023-12-29T03:31:10;2.30;44.40
18408;DHT22;9330;52.210;21.174;2023-12-29T03:33:38;2.50;99.90
18408;DHT22;9330;52.210;21.174;2023-12-29T03:36:05;2.40;99.90
18408;DHT22;9330;52.210;21.174;2023-12-29T03:38:33;2.40;99.90
18408;DHT22;9330;52.210;21.174;2023-12-29T03:41:00;2.50;99.90
18408;DHT22;9330;52.210;21.174;2023-12-29T03:43:26;2.50;99.90
18408;DHT22;9330;52.210;21.174;2023-12-29T03:45:53;2.50;99.90
18408;DHT22;9330;52.210;21.174;2023-12-29T03:48:20;2.40;99.90
18408;DHT22;9330;52.210;21.174;2023-12-29T03:50:48;2.50;97.50
18408;DHT22;9330;52.210;21.174;2023-12-29T03:53:15;2.40;99.90
18408;DHT22;9330;52.210;21.174;2023-12-29T03:55:43;2.40;99.90
18408;DHT22;9330;52.210;21.174;2023-12-29T03:58:09;2.50;99.90
18408;DHT22;9330;52.210;21.174;2023-12-29T04:00:36;2.40;99.90
18408;DHT22;9330;52.210;21.174;2023-12-29T04:03:07;2.40;99.90
18408;DHT22;9330;52.210;21.174;2023-12-29T04:05:33;2.40;99.90
18408;DHT22;9330;52.210;21.174;2023-12-29T04:08:02;2.40;99.90
18408;DHT22;9330;52.210;21.174;2023-12-29T04:10:29;2.50;99.90
18408;DHT22;9330;52.210;21.174;2023-12-29T04:12:56;2.50;99.90
18408;DHT22;9330;52.210;21.174;2023-12-29T04:15:23;2.50;99.90
18408;DHT22;9330;52.210;21.174;2023-12-29T04:17:49;2.40;99.90
18408;DHT22;9330;52.210;21.174;2023-12-29T04:20:16;2.50;99.90
18408;DHT22;9330;52.210;21.174;2023-12-29T04:22:43;2.50;99.90
18408;DHT22;9330;52.210;21.174;2023-12-29T04:25:12;2.40;99.90
18408;DHT22;9330;52.210;21.174;2023-12-29T04:27:39;2.40;99.90
18408;DHT22;9330;52.210;21.174;2023-12-29T04:30:07;2.40;99.90
18408;DHT22;9330;52.210;21.174;2023-12-29T04:32:34;2.50;99.90
18408;DHT22;9330;52.210;21.174;2023-12-29T04:35:01;2.40;99.90
18408;DHT22;9330;52.210;21.174;2023-12-29T04:37:28;2.40;99.90
18408;DHT22;9330;52.210;21.174;2023-12-29T04:39:55;2.40;99.90
18408;DHT22;9330;52.210;21.174;2023-12-29T04:42:23;2.40;99.90
18408;DHT22;9330;52.210;21.174;2023-12-29T04:44:50;2.40;99.90
18408;DHT22;9330;52.210;21.174;2023-12-29T04:47:17;2.40;99.90
18408;DHT22;9330;52.210;21.174;2023-12-29T04:49:44;2.40;99.90
18408;DHT22;9330;52.210;21.174;2023-12-29T04:52:11;2.40;99.90
18408;DHT22;9330;52.210;21.174;2023-12-29T04:54:38;2.40;99.90
18408;DHT22;9330;52.210;21.174;2023-12-29T04:57:04;2.40;99.90
18408;DHT22;9330;52.210;21.174;2023-12-29T04:59:32;2.50;99.90
18408;DHT22;9330;52.210;21.174;2023-12-29T05:01:59;2.40;99.90
18408;DHT22;9330;52.210;21.174;2023-12-29T05:04:26;2.50;99.90
18408;DHT22;9330;52.210;21.174;2023-12-29T05:06:53;2.50;99.90
18408;DHT22;9330;52.210;21.174;2023-12-29T05:09:20;2.50;99.90
18408;DHT22;9330;52.210;21.174;2023-12-29T05:11:47;2.40;99.90
18408;DHT22;9330;52.210;21.174;2023-12-29T05:14:14;2.40;99.90
18408;DHT22;9330;52.210;21.174;2023-12-29T05:16:43;2.50;99.90
18408;DHT22;9330;52.210;21.174;2023-12-29T05:19:09;2.50;99.90
18408;DHT22;9330;52.210;21.174;2023-12-29T05:21:36;2.50;99.90
18408;DHT22;9330;52.210;21.174;2023-12-29T05:24:03;2.60;99.90
18408;DHT22;9330;52.210;21.174;2023-12-29T05:26:31;2.60;99.90
18408;DHT22;9330;52.210;21.174;2023-12-29T05:28:58;2.70;99.90
18408;DHT22;9330;52.210;21.174;2023-12-29T05:31:25;2.80;99.90
18408;DHT22;9330;52.210;21.174;2023-12-29T05:33:53;2.80;99.90
18408;DHT22;9330;52.210;21.174;2023-12-29T05:36:20;2.90;99.90
18408;DHT22;9330;52.210;21.174;2023-12-29T05:38:47;3.00;99.90
18408;DHT22;9330;52.210;21.174;2023-12-29T05:41:14;3.00;99.90
18408;DHT22;9330;52.210;21.174;2023-12-29T05:43:41;3.10;99.90
18408;DHT22;9330;52.210;21.174;2023-12-29T05:46:09;3.10;99.90
18408;DHT22;9330;52.210;21.174;2023-12-29T05:48:37;3.20;99.90
18408;DHT22;9330;52.210;21.174;2023-12-29T05:51:07;3.20;99.90
18408;DHT22;9330;52.210;21.174;2023-12-29T05:53:34;3.30;99.90
18408;DHT22;9330;52.210;21.174;2023-12-29T05:56:01;3.30;99.90
18408;DHT22;9330;52.210;21.174;2023-12-29T05:58:28;3.30;99.90
18408;DHT22;9330;52.210;21.174;2023-12-29T06:00:55;3.30;99.90
18408;DHT22;9330;52.210;21.174;2023-12-29T06:03:21;3.30;99.90
18408;DHT22;9330;52.210;21.174;2023-12-29T06:05:48;3.40;99.90
18408;DHT22;9330;52.210;21.174;2023-12-29T06:08:16;3.50;99.90
18408;DHT22;9330;52.210;21.174;2023-12-29T06:10:43;3.40;99.90
18408;DHT22;9330;52.210;21.174;2023-12-29T06:13:10;3.50;99.90
18408;DHT22;9330;52.210;21.174;2023-12-29T06:15:37;3.50;93.60
18408;DHT22;9330;52.210;21.174;2023-12-29T06:18:04;3.60;75.40
18408;DHT22;9330;52.210;21.174;2023-12-29T06:20:31;3.50;72.60
18408;DHT22;9330;52.210;21.174;2023-12-29T06:22:58;3.70;75.50
18408;DHT22;9330;52.210;21.174;2023-12-29T06:25:27;3.60;59.10
18408;DHT22;9330;52.210;21.174;2023-12-29T06:27:54;3.70;29.00
18408;DHT22;9330;52.210;21.174;2023-12-29T06:30:21;3.70;19.30
18408;DHT22;9330;52.210;21.174;2023-12-29T06:32:48;3.70;6.50
18408;DHT22;9330;52.210;21.174;2023-12-29T06:35:14;3.70;1.00
18408;DHT22;9330;52.210;21.174;2023-12-29T06:37:42;3.80;1.00
18408;DHT22;9330;52.210;21.174;2023-12-29T06:40:09;3.80;1.00
18408;DHT22;9330;52.210;21.174;2023-12-29T06:42:37;3.90;1.00
18408;DHT22;9330;52.210;21.174;2023-12-29T06:45:05;3.90;1.00
18408;DHT22;9330;52.210;21.174;2023-12-29T06:47:33;3.90;1.00
18408;DHT22;9330;52.210;21.174;2023-12-29T06:50:01;3.90;1.00
18408;DHT22;9330;52.210;21.174;2023-12-29T06:52:28;3.90;1.00
18408;DHT22;9330;52.210;21.174;2023-12-29T06:54:59;3.80;1.00
18408;DHT22;9330;52.210;21.174;2023-12-29T06:57:26;3.90;1.00
18408;DHT22;9330;52.210;21.174;2023-12-29T06:59:54;3.80;1.00
18408;DHT22;9330;52.210;21.174;2023-12-29T07:02:21;3.80;1.00
18408;DHT22;9330;52.210;21.174;2023-12-29T07:04:49;3.80;1.00
18408;DHT22;9330;52.210;21.174;2023-12-29T07:07:16;3.80;1.00
18408;DHT22;9330;52.210;21.174;2023-12-29T07:09:43;3.80;1.00
18408;DHT22;9330;52.210;21.174;2023-12-29T07:12:10;3.90;1.00
18408;DHT22;9330;52.210;21.174;2023-12-29T07:14:36;3.90;1.00
18408;DHT22;9330;52.210;21.174;2023-12-29T07:17:05;3.90;1.00
18408;DHT22;9330;52.210;21.174;2023-12-29T07:19:32;3.90;1.00
18408;DHT22;9330;52.210;21.174;2023-12-29T07:22:03;3.90;1.00
18408;DHT22;9330;52.210;21.174;2023-12-29T07:24:30;3.90;1.00
18408;DHT22;9330;52.210;21.174;2023-12-29T07:26:57;3.90;1.00
18408;DHT22;9330;52.210;21.174;2023-12-29T07:29:24;3.90;1.00
18408;DHT22;9330;52.210;21.174;2023-12-29T07:31:51;4.00;1.00
18408;DHT22;9330;52.210;21.174;2023-12-29T07:34:19;4.00;1.00
18408;DHT22;9330;52.210;21.174;2023-12-29T07:36:46;4.10;1.00
18408;DHT22;9330;52.210;21.174;2023-12-29T07:39:12;4.10;1.00
18408;DHT22;9330;52.210;21.174;2023-12-29T07:41:40;4.20;1.00
18408;DHT22;9330;52.210;21.174;2023-12-29T07:44:07;4.30;1.00
18408;DHT22;9330;52.210;21.174;2023-12-29T07:46:37;4.30;1.00
18408;DHT22;9330;52.210;21.174;2023-12-29T07:49:04;4.20;1.00
18408;DHT22;9330;52.210;21.174;2023-12-29T07:51:32;4.40;1.00
18408;DHT22;9330;52.210;21.174;2023-12-29T07:53:59;4.40;1.00
18408;DHT22;9330;52.210;21.174;2023-12-29T07:56:26;4.40;1.00
18408;DHT22;9330;52.210;21.174;2023-12-29T07:58:53;4.60;1.00
18408;DHT22;9330;52.210;21.174;2023-12-29T08:01:20;4.60;1.00
18408;DHT22;9330;52.210;21.174;2023-12-29T08:03:46;4.60;1.00
18408;DHT22;9330;52.210;21.174;2023-12-29T08:06:13;4.70;1.00
18408;DHT22;9330;52.210;21.174;2023-12-29T08:08:41;4.70;1.00
18408;DHT22;9330;52.210;21.174;2023-12-29T08:11:13;4.70;1.00
18408;DHT22;9330;52.210;21.174;2023-12-29T08:13:40;4.80;1.00
18408;DHT22;9330;52.210;21.174;2023-12-29T08:16:07;4.80;1.00
18408;DHT22;9330;52.210;21.174;2023-12-29T08:18:34;4.80;1.00
18408;DHT22;9330;52.210;21.174;2023-12-29T08:21:01;4.80;1.00
18408;DHT22;9330;52.210;21.174;2023-12-29T08:23:28;4.90;1.00
18408;DHT22;9330;52.210;21.174;2023-12-29T08:25:57;5.00;1.00
18408;DHT22;9330;52.210;21.174;2023-12-29T08:28:25;4.90;1.00
18408;DHT22;9330;52.210;21.174;2023-12-29T08:30:52;5.00;1.00
18408;DHT22;9330;52.210;21.174;2023-12-29T08:33:19;5.00;1.00
18408;DHT22;9330;52.210;21.174;2023-12-29T08:35:46;5.00;1.00
18408;DHT22;9330;52.210;21.174;2023-12-29T08:38:13;5.10;1.00
18408;DHT22;9330;52.210;21.174;2023-12-29T08:40:40;5.10;99.90
18408;DHT22;9330;52.210;21.174;2023-12-29T08:43:08;5.20;99.90
18408;DHT22;9330;52.210;21.174;2023-12-29T08:45:35;5.10;99.90
18408;DHT22;9330;52.210;21.174;2023-12-29T08:48:04;5.20;99.90
18408;DHT22;9330;52.210;21.174;2023-12-29T08:50:31;5.20;99.90
18408;DHT22;9330;52.210;21.174;2023-12-29T08:52:58;5.20;99.90
18408;DHT22;9330;52.210;21.174;2023-12-29T08:55:24;5.40;99.90
18408;DHT22;9330;52.210;21.174;2023-12-29T08:57:51;5.50;1.00
18408;DHT22;9330;52.210;21.174;2023-12-29T09:00:20;5.60;1.00
18408;DHT22;9330;52.210;21.174;2023-12-29T09:02:46;5.70;1.00
18408;DHT22;9330;52.210;21.174;2023-12-29T09:05:13;5.80;1.00
18408;DHT22;9330;52.210;21.174;2023-12-29T09:07:40;5.80;1.00
18408;DHT22;9330;52.210;21.174;2023-12-29T09:10:07;5.80;1.00
18408;DHT22;9330;52.210;21.174;2023-12-29T09:12:37;5.80;1.00
18408;DHT22;9330;52.210;21.174;2023-12-29T09:15:05;5.90;1.00
18408;DHT22;9330;52.210;21.174;2023-12-29T09:17:33;5.90;1.00
18408;DHT22;9330;52.210;21.174;2023-12-29T09:20:00;6.00;1.00
18408;DHT22;9330;52.210;21.174;2023-12-29T09:22:27;6.10;1.00
18408;DHT22;9330;52.210;21.174;2023-12-29T09:24:54;6.20;99.90
18408;DHT22;9330;52.210;21.174;2023-12-29T09:27:21;6.20;99.90
18408;DHT22;9330;52.210;21.174;2023-12-29T09:29:49;6.30;99.90
18408;DHT22;9330;52.210;21.174;2023-12-29T09:32:17;6.30;99.90
18408;DHT22;9330;52.210;21.174;2023-12-29T09:34:45;6.30;1.00
18408;DHT22;9330;52.210;21.174;2023-12-29T09:37:12;6.30;1.00
18408;DHT22;9330;52.210;21.174;2023-12-29T09:39:39;6.30;1.00
18408;DHT22;9330;52.210;21.174;2023-12-29T09:42:07;6.40;1.00
18408;DHT22;9330;52.210;21.174;2023-12-29T09:44:37;6.50;1.00
18408;DHT22;9330;52.210;21.174;2023-12-29T09:47:10;6.50;1.00
18408;DHT22;9330;52.210;21.174;2023-12-29T09:49:38;6.60;1.00
18408;DHT22;9330;52.210;21.174;2023-12-29T09:52:11;6.60;1.00
18408;DHT22;9330;52.210;21.174;2023-12-29T09:54:39;6.70;1.00
18408;DHT22;9330;52.210;21.174;2023-12-29T09:57:08;7.00;1.00
18408;DHT22;9330;52.210;21.174;2023-12-29T09:59:35;7.00;58.40
18408;DHT22;9330;52.210;21.174;2023-12-29T10:02:04;7.00;36.00
18408;DHT22;9330;52.210;21.174;2023-12-29T10:04:31;7.10;1.00
18408;DHT22;9330;52.210;21.174;2023-12-29T10:07:02;7.10;1.00
18408;DHT22;9330;52.210;21.174;2023-12-29T10:09:32;7.10;14.60
18408;DHT22;9330;52.210;21.174;2023-12-29T10:12:09;7.30;1.00
18408;DHT22;9330;52.210;21.174;2023-12-29T10:14:41;7.20;1.00
18408;DHT22;9330;52.210;21.174;2023-12-29T10:17:15;7.30;1.00
18408;DHT22;9330;52.210;21.174;2023-12-29T10:19:50;7.20;1.00
18408;DHT22;9330;52.210;21.174;2023-12-29T10:22:30;7.40;1.00
18408;DHT22;9330;52.210;21.174;2023-12-29T10:25:01;7.50;1.00
18408;DHT22;9330;52.210;21.174;2023-12-29T10:27:28;7.60;1.00
18408;DHT22;9330;52.210;21.174;2023-12-29T10:29:55;7.60;99.90
18408;DHT22;9330;52.210;21.174;2023-12-29T10:32:22;7.70;99.90
18408;DHT22;9330;52.210;21.174;2023-12-29T10:34:49;7.80;99.90
18408;DHT22;9330;52.210;21.174;2023-12-29T10:37:22;7.90;99.90
18408;DHT22;9330;52.210;21.174;2023-12-29T10:39:55;7.90;19.20
18408;DHT22;9330;52.210;21.174;2023-12-29T10:42:23;8.00;1.00
18408;DHT22;9330;52.210;21.174;2023-12-29T10:45:05;8.10;1.00
18408;DHT22;9330;52.210;21.174;2023-12-29T10:47:33;8.40;1.00
18408;DHT22;9330;52.210;21.174;2023-12-29T10:50:02;8.30;1.00
18408;DHT22;9330;52.210;21.174;2023-12-29T10:52:30;8.60;1.00
18408;DHT22;9330;52.210;21.174;2023-12-29T10:55:05;8.60;99.90
18408;DHT22;9330;52.210;21.174;2023-12-29T10:57:33;8.70;1.00
18408;DHT22;9330;52.210;21.174;2023-12-29T11:00:00;8.90;1.00
18408;DHT22;9330;52.210;21.174;2023-12-29T11:02:27;8.90;1.00
18408;DHT22;9330;52.210;21.174;2023-12-29T11:05:02;9.00;1.00
18408;DHT22;9330;52.210;21.174;2023-12-29T11:07:34;9.00;99.90
18408;DHT22;9330;52.210;21.174;2023-12-29T11:10:02;9.10;99.90
18408;DHT22;9330;52.210;21.174;2023-12-29T11:12:33;9.20;99.90
18408;DHT22;9330;52.210;21.174;2023-12-29T11:15:02;9.20;99.90
18408;DHT22;9330;52.210;21.174;2023-12-29T11:17:30;9.30;38.30
18408;DHT22;9330;52.210;21.174;2023-12-29T11:19:59;9.30;1.00
18408;DHT22;9330;52.210;21.174;2023-12-29T11:22:28;9.40;1.00
18408;DHT22;9330;52.210;21.174;2023-12-29T11:24:56;9.30;1.00
18408;DHT22;9330;52.210;21.174;2023-12-29T11:27:29;9.30;1.00
18408;DHT22;9330;52.210;21.174;2023-12-29T11:29:59;9.50;1.00
18408;DHT22;9330;52.210;21.174;2023-12-29T11:32:32;9.40;1.00
18408;DHT22;9330;52.210;21.174;2023-12-29T11:35:10;9.40;1.00
18408;DHT22;9330;52.210;21.174;2023-12-29T11:37:52;9.50;1.00
18408;DHT22;9330;52.210;21.174;2023-12-29T11:40:29;9.60;1.00
18408;DHT22;9330;52.210;21.174;2023-12-29T11:43:00;9.60;1.00
18408;DHT22;9330;52.210;21.174;2023-12-29T11:45:33;9.60;99.90
18408;DHT22;9330;52.210;21.174;2023-12-29T11:48:01;9.60;99.90
18408;DHT22;9330;52.210;21.174;2023-12-29T11:50:30;9.80;99.90
18408;DHT22;9330;52.210;21.174;2023-12-29T11:52:57;9.60;99.90
18408;DHT22;9330;52.210;21.174;2023-12-29T11:55:28;9.60;99.90
18408;DHT22;9330;52.210;21.174;2023-12-29T11:57:56;9.60;99.90
18408;DHT22;9330;52.210;21.174;2023-12-29T12:00:44;9.60;99.90
18408;DHT22;9330;52.210;21.174;2023-12-29T12:03:22;9.50;99.90
18408;DHT22;9330;52.210;21.174;2023-12-29T12:05:51;9.60;99.90
18408;DHT22;9330;52.210;21.174;2023-12-29T12:08:30;9.60;99.90
18408;DHT22;9330;52.210;21.174;2023-12-29T12:14:02;9.60;17.70
18408;DHT22;9330;52.210;21.174;2023-12-29T12:16:58;9.60;18.40
18408;DHT22;9330;52.210;21.174;2023-12-29T12:19:24;9.60;1.00
18408;DHT22;9330;52.210;21.174;2023-12-29T12:21:54;9.60;1.00
18408;DHT22;9330;52.210;21.174;2023-12-29T12:24:22;9.50;1.00
18408;DHT22;9330;52.210;21.174;2023-12-29T12:26:49;9.80;1.00
18408;DHT22;9330;52.210;21.174;2023-12-29T12:29:16;9.60;1.00
18408;DHT22;9330;52.210;21.174;2023-12-29T12:31:54;9.60;1.00
18408;DHT22;9330;52.210;21.174;2023-12-29T12:34:23;9.50;1.00
18408;DHT22;9330;52.210;21.174;2023-12-29T12:36:51;9.50;1.00
18408;DHT22;9330;52.210;21.174;2023-12-29T12:39:18;9.60;1.00
18408;DHT22;9330;52.210;21.174;2023-12-29T12:41:45;9.60;1.00
18408;DHT22;9330;52.210;21.174;2023-12-29T12:44:13;9.60;1.00
18408;DHT22;9330;52.210;21.174;2023-12-29T12:46:44;9.50;1.00
18408;DHT22;9330;52.210;21.174;2023-12-29T12:49:11;9.50;1.00
18408;DHT22;9330;52.210;21.174;2023-12-29T12:51:40;9.50;1.00
18408;DHT22;9330;52.210;21.174;2023-12-29T12:54:07;9.60;1.00
18408;DHT22;9330;52.210;21.174;2023-12-29T12:56:35;9.40;1.00
18408;DHT22;9330;52.210;21.174;2023-12-29T12:59:02;9.50;1.00
18408;DHT22;9330;52.210;21.174;2023-12-29T13:01:34;9.50;1.00
18408;DHT22;9330;52.210;21.174;2023-12-29T13:04:03;9.60;1.00
18408;DHT22;9330;52.210;21.174;2023-12-29T13:06:31;9.60;1.00
18408;DHT22;9330;52.210;21.174;2023-12-29T13:09:00;9.70;1.00
18408;DHT22;9330;52.210;21.174;2023-12-29T13:11:28;9.50;1.00
18408;DHT22;9330;52.210;21.174;2023-12-29T13:13:55;9.70;1.00
18408;DHT22;9330;52.210;21.174;2023-12-29T13:16:30;9.50;1.00
18408;DHT22;9330;52.210;21.174;2023-12-29T13:18:57;9.60;1.00
18408;DHT22;9330;52.210;21.174;2023-12-29T13:21:24;9.70;1.00
18408;DHT22;9330;52.210;21.174;2023-12-29T13:23:51;9.60;1.00
18408;DHT22;9330;52.210;21.174;2023-12-29T13:26:22;9.50;1.00
18408;DHT22;9330;52.210;21.174;2023-12-29T13:28:50;9.60;1.00
18408;DHT22;9330;52.210;21.174;2023-12-29T13:31:17;9.50;1.00
18408;DHT22;9330;52.210;21.174;2023-12-29T13:33:51;9.50;1.00
18408;DHT22;9330;52.210;21.174;2023-12-29T13:36:28;9.80;1.00
18408;DHT22;9330;52.210;21.174;2023-12-29T13:38:59;9.60;1.00
18408;DHT22;9330;52.210;21.174;2023-12-29T13:41:32;9.40;1.00
18408;DHT22;9330;52.210;21.174;2023-12-29T13:44:00;9.50;1.00
18408;DHT22;9330;52.210;21.174;2023-12-29T13:46:28;9.60;1.00
18408;DHT22;9330;52.210;21.174;2023-12-29T13:48:56;9.50;1.00
18408;DHT22;9330;52.210;21.174;2023-12-29T13:51:25;9.50;1.00
18408;DHT22;9330;52.210;21.174;2023-12-29T13:53:58;9.50;1.00
18408;DHT22;9330;52.210;21.174;2023-12-29T13:56:25;9.50;1.00
18408;DHT22;9330;52.210;21.174;2023-12-29T13:58:53;9.50;1.00
18408;DHT22;9330;52.210;21.174;2023-12-29T14:01:20;9.50;1.00
18408;DHT22;9330;52.210;21.174;2023-12-29T14:03:51;9.50;1.00
18408;DHT22;9330;52.210;21.174;2023-12-29T14:06:26;9.50;1.00
18408;DHT22;9330;52.210;21.174;2023-12-29T14:08:54;9.50;1.00
18408;DHT22;9330;52.210;21.174;2023-12-29T14:11:21;9.40;8.10
18408;DHT22;9330;52.210;21.174;2023-12-29T14:13:48;9.40;21.30
18408;DHT22;9330;52.210;21.174;2023-12-29T14:16:16;9.50;38.20
18408;DHT22;9330;52.210;21.174;2023-12-29T14:18:55;9.40;93.10
18408;DHT22;9330;52.210;21.174;2023-12-29T14:21:24;9.50;99.90
18408;DHT22;9330;52.210;21.174;2023-12-29T14:24:00;9.20;99.90
18408;DHT22;9330;52.210;21.174;2023-12-29T14:26:27;9.20;99.90
18408;DHT22;9330;52.210;21.174;2023-12-29T14:29:06;9.30;99.90
18408;DHT22;9330;52.210;21.174;2023-12-29T14:31:37;9.30;99.90
18408;DHT22;9330;52.210;21.174;2023-12-29T14:34:04;9.20;99.90
18408;DHT22;9330;52.210;21.174;2023-12-29T14:36:31;9.40;99.90
18408;DHT22;9330;52.210;21.174;2023-12-29T14:38:58;9.20;1.00
18408;DHT22;9330;52.210;21.174;2023-12-29T14:41:25;9.20;1.00
18408;DHT22;9330;52.210;21.174;2023-12-29T14:43:52;9.20;1.00
18408;DHT22;9330;52.210;21.174;2023-12-29T14:46:19;9.20;1.00
18408;DHT22;9330;52.210;21.174;2023-12-29T14:48:48;9.20;1.00
18408;DHT22;9330;52.210;21.174;2023-12-29T14:51:15;9.20;1.00
18408;DHT22;9330;52.210;21.174;2023-12-29T14:53:43;9.20;1.00
18408;DHT22;9330;52.210;21.174;2023-12-29T14:56:10;9.20;1.00
18408;DHT22;9330;52.210;21.174;2023-12-29T14:58:37;9.30;1.00
18408;DHT22;9330;52.210;21.174;2023-12-29T15:01:05;9.30;1.00
18408;DHT22;9330;52.210;21.174;2023-12-29T15:03:32;9.20;1.00
18408;DHT22;9330;52.210;21.174;2023-12-29T15:06:01;9.20;1.00
18408;DHT22;9330;52.210;21.174;2023-12-29T15:08:28;9.20;1.00
18408;DHT22;9330;52.210;21.174;2023-12-29T15:11:00;9.20;1.00
18408;DHT22;9330;52.210;21.174;2023-12-29T15:13:27;9.10;1.00
18408;DHT22;9330;52.210;21.174;2023-12-29T15:15:56;9.10;1.00
18408;DHT22;9330;52.210;21.174;2023-12-29T15:18:22;9.00;1.00
18408;DHT22;9330;52.210;21.174;2023-12-29T15:20:49;9.00;1.00
18408;DHT22;9330;52.210;21.174;2023-12-29T15:23:18;9.00;1.00
18408;DHT22;9330;52.210;21.174;2023-12-29T15:25:45;9.00;1.00
18408;DHT22;9330;52.210;21.174;2023-12-29T15:28:12;9.00;1.00
18408;DHT22;9330;52.210;21.174;2023-12-29T15:30:38;9.00;1.00
18408;DHT22;9330;52.210;21.174;2023-12-29T15:33:05;8.80;1.00
18408;DHT22;9330;52.210;21.174;2023-12-29T15:35:32;8.90;1.00
18408;DHT22;9330;52.210;21.174;2023-12-29T15:37:59;8.90;1.00
18408;DHT22;9330;52.210;21.174;2023-12-29T15:40:27;8.80;1.00
18408;DHT22;9330;52.210;21.174;2023-12-29T15:42:54;8.70;1.00
18408;DHT22;9330;52.210;21.174;2023-12-29T15:45:22;8.70;1.00
18408;DHT22;9330;52.210;21.174;2023-12-29T15:47:48;8.70;1.00
18408;DHT22;9330;52.210;21.174;2023-12-29T15:50:15;8.60;1.00
18408;DHT22;9330;52.210;21.174;2023-12-29T15:52:42;8.80;99.90
18408;DHT22;9330;52.210;21.174;2023-12-29T15:55:09;8.60;99.90
18408;DHT22;9330;52.210;21.174;2023-12-29T15:57:37;8.50;99.90
18408;DHT22;9330;52.210;21.174;2023-12-29T16:00:05;8.30;99.90
18408;DHT22;9330;52.210;21.174;2023-12-29T16:02:33;8.40;99.90
18408;DHT22;9330;52.210;21.174;2023-12-29T16:05:03;8.40;99.90
18408;DHT22;9330;52.210;21.174;2023-12-29T16:07:30;8.50;99.90